Time;durP1;ratioP1;P1;durP2;ratioP2;P2;SDS_P1;SDS_P2;PMS_P1;PMS_P2;Temp;Humidity;BMP_temperature;BMP_pressure;BME280_temperature;BME280_humidity;BME280_pressure;Samples;Min_cycle;Max_cycle;Signal;HPM_P1;HPM_P2
2021/09/20 00:00:09;;;;;;;2.20;1.98;;;23.10;54.30;;;;;;5048083;28;20167;-44
2021/09/20 00:02:36;;;;;;;4.20;1.83;;;23.20;54.10;;;;;;5047615;28;20021;-53
2021/09/20 00:05:02;;;;;;;3.53;1.67;;;23.10;54.00;;;;;;5049512;28;20389;-46
2021/09/20 00:07:28;;;;;;;2.42;1.70;;;23.10;54.10;;;;;;5049756;28;20029;-46
2021/09/20 00:09:53;;;;;;;2.15;1.80;;;23.10;54.10;;;;;;5049211;28;20561;-47
2021/09/20 00:12:19;;;;;;;1.85;1.60;;;23.10;54.20;;;;;;5047994;28;20455;-46
2021/09/20 00:14:45;;;;;;;2.08;1.80;;;23.10;54.10;;;;;;5049182;28;20029;-44
2021/09/20 00:17:10;;;;;;;1.67;1.48;;;23.10;54.10;;;;;;5047429;28;20028;-45
2021/09/20 00:19:36;;;;;;;3.55;2.08;;;23.10;54.20;;;;;;5047080;28;20036;-53
2021/09/20 00:22:02;;;;;;;3.10;1.75;;;23.10;54.20;;;;;;5050243;28;20045;-46
2021/09/20 00:24:28;;;;;;;2.53;1.90;;;23.10;54.10;;;;;;5052658;28;20059;-45
2021/09/20 00:26:53;;;;;;;2.10;1.60;;;23.10;54.10;;;;;;5047753;28;20033;-45
2021/09/20 00:29:19;;;;;;;4.15;1.83;;;23.10;54.10;;;;;;5049119;28;20025;-45
2021/09/20 00:31:45;;;;;;;2.05;1.77;;;23.10;54.10;;;;;;5053104;28;20459;-47
2021/09/20 00:34:11;;;;;;;2.25;1.83;;;23.10;54.10;;;;;;5053800;28;20100;-47
2021/09/20 00:36:36;;;;;;;2.33;1.90;;;23.10;54.00;;;;;;5050103;28;20032;-52
2021/09/20 00:39:03;;;;;;;1.70;1.60;;;23.10;54.00;;;;;;5053874;28;20733;-44
2021/09/20 00:41:29;;;;;;;2.08;1.80;;;23.10;54.70;;;;;;5052552;28;20417;-51
2021/09/20 00:43:54;;;;;;;1.95;1.73;;;23.10;54.00;;;;;;5049880;28;20025;-45
2021/09/20 00:46:20;;;;;;;1.65;1.55;;;23.00;54.50;;;;;;5052448;28;20028;-44
2021/09/20 00:48:46;;;;;;;1.83;1.50;;;23.10;54.00;;;;;;5050390;28;20036;-46
2021/09/20 00:51:11;;;;;;;3.22;1.70;;;23.10;54.00;;;;;;5050586;28;20409;-46
2021/09/20 00:53:37;;;;;;;3.25;1.85;;;23.10;53.90;;;;;;5052497;28;20021;-46
2021/09/20 00:56:03;;;;;;;2.53;1.80;;;23.10;53.90;;;;;;5050860;28;20048;-49
2021/09/20 00:58:29;;;;;;;2.17;1.60;;;23.10;54.00;;;;;;5051851;28;20469;-48
2021/09/20 01:00:56;;;;;;;2.67;1.95;;;23.10;54.00;;;;;;5047143;28;20049;-46
2021/09/20 01:03:21;;;;;;;1.73;1.63;;;23.10;54.00;;;;;;5053059;28;20013;-46
2021/09/20 01:05:47;;;;;;;2.78;2.10;;;23.10;53.90;;;;;;5049397;28;20124;-45
2021/09/20 01:08:13;;;;;;;3.15;1.90;;;23.10;53.90;;;;;;5050574;28;20041;-47
2021/09/20 01:10:38;;;;;;;2.00;1.80;;;23.10;54.00;;;;;;5050754;28;20378;-44
2021/09/20 01:13:04;;;;;;;2.03;1.83;;;23.10;53.90;;;;;;5050430;28;20033;-45
2021/09/20 01:15:32;;;;;;;2.10;1.90;;;23.00;53.80;;;;;;5049861;28;20434;-50
2021/09/20 01:17:57;;;;;;;3.03;1.90;;;23.10;53.90;;;;;;5052682;28;20127;-45
2021/09/20 01:20:23;;;;;;;1.95;1.73;;;23.10;53.90;;;;;;5053530;28;20487;-48
2021/09/20 01:23:01;;;;;;;2.08;1.88;;;23.10;53.90;;;;;;5051238;28;20032;-45
2021/09/20 01:25:28;;;;;;;2.28;1.80;;;23.00;53.80;;;;;;5050636;28;20499;-49
2021/09/20 01:27:54;;;;;;;1.85;1.50;;;23.00;53.90;;;;;;5052036;28;20041;-50
2021/09/20 01:30:20;;;;;;;2.10;1.75;;;23.00;53.80;;;;;;5048709;28;20041;-44
2021/09/20 01:32:46;;;;;;;2.38;2.10;;;23.10;53.90;;;;;;5053001;28;20025;-46
2021/09/20 01:35:13;;;;;;;2.42;1.67;;;23.00;53.80;;;;;;5052443;28;20025;-47
2021/09/20 01:37:39;;;;;;;2.53;2.30;;;23.00;54.10;;;;;;5048162;28;20025;-48
2021/09/20 01:40:05;;;;;;;2.38;1.95;;;23.10;53.90;;;;;;5051723;28;20036;-47
2021/09/20 01:42:31;;;;;;;2.00;1.83;;;23.00;53.80;;;;;;5050315;28;20025;-49
2021/09/20 01:44:57;;;;;;;2.92;1.92;;;23.10;53.80;;;;;;5050954;28;20052;-46
2021/09/20 01:47:23;;;;;;;2.38;2.03;;;23.10;53.90;;;;;;5050314;28;20029;-47
2021/09/20 01:49:48;;;;;;;1.90;1.63;;;23.00;53.80;;;;;;5050257;28;20418;-46
2021/09/20 01:52:14;;;;;;;2.97;1.95;;;23.00;53.90;;;;;;5051536;28;20036;-46
2021/09/20 01:54:40;;;;;;;2.67;1.98;;;23.10;53.90;;;;;;5050463;28;20074;-45
2021/09/20 01:57:06;;;;;;;2.30;2.10;;;23.00;53.80;;;;;;5050446;28;20024;-45
2021/09/20 01:59:31;;;;;;;2.60;1.58;;;23.00;53.90;;;;;;5048518;28;20053;-45
2021/09/20 02:01:57;;;;;;;2.70;1.98;;;23.00;53.80;;;;;;5050246;28;20136;-50
2021/09/20 02:04:22;;;;;;;2.58;1.85;;;23.00;53.80;;;;;;5049156;28;20069;-49
2021/09/20 02:06:48;;;;;;;2.17;1.65;;;23.00;53.80;;;;;;5048162;28;20032;-44
2021/09/20 02:09:14;;;;;;;2.45;2.00;;;23.00;53.90;;;;;;5053177;28;20025;-45
2021/09/20 02:11:40;;;;;;;1.80;1.63;;;23.10;53.90;;;;;;5051348;28;20482;-45
2021/09/20 02:14:06;;;;;;;4.00;1.70;;;23.00;53.90;;;;;;5053326;28;20025;-46
2021/09/20 02:16:32;;;;;;;1.67;1.50;;;23.10;53.90;;;;;;5040107;28;20029;-47
2021/09/20 02:18:58;;;;;;;1.95;1.83;;;23.00;53.80;;;;;;5032347;28;20506;-48
2021/09/20 02:21:24;;;;;;;2.20;1.90;;;23.00;53.80;;;;;;5050049;28;20056;-46
2021/09/20 02:23:50;;;;;;;2.20;1.80;;;23.00;53.80;;;;;;5052458;28;20100;-47
2021/09/20 02:26:15;;;;;;;2.28;1.83;;;23.00;53.80;;;;;;5052531;28;20033;-46
2021/09/20 02:28:41;;;;;;;2.03;1.83;;;23.00;53.80;;;;;;5050771;28;20033;-49
2021/09/20 02:31:08;;;;;;;3.13;1.90;;;23.00;53.80;;;;;;5033211;28;20116;-46
2021/09/20 02:33:36;;;;;;;1.90;1.70;;;23.00;53.80;;;;;;5032951;28;20036;-53
2021/09/20 02:36:03;;;;;;;2.28;2.00;;;23.00;53.80;;;;;;5041296;28;20566;-44
2021/09/20 02:38:30;;;;;;;3.17;1.98;;;23.00;53.80;;;;;;5044781;28;20135;-45
2021/09/20 02:40:56;;;;;;;3.03;1.90;;;23.00;53.80;;;;;;5051996;28;20036;-45
2021/09/20 02:43:22;;;;;;;1.83;1.60;;;23.00;53.80;;;;;;5052109;28;20419;-46
2021/09/20 02:45:48;;;;;;;2.83;2.13;;;23.00;53.80;;;;;;5050816;28;20112;-47
2021/09/20 02:48:13;;;;;;;3.15;2.35;;;23.00;53.80;;;;;;5051385;28;20033;-45
2021/09/20 02:50:39;;;;;;;1.92;1.67;;;23.00;53.80;;;;;;5050631;28;20030;-47
2021/09/20 02:53:05;;;;;;;2.20;1.92;;;23.00;53.80;;;;;;5041050;28;20040;-44
2021/09/20 02:55:32;;;;;;;2.20;1.90;;;23.00;53.80;;;;;;5038786;28;20048;-46
2021/09/20 02:57:58;;;;;;;2.38;2.08;;;23.00;53.80;;;;;;5031548;28;20623;-45
2021/09/20 03:00:24;;;;;;;5.25;1.80;;;23.00;54.20;;;;;;5032134;28;20055;-44
2021/09/20 03:02:49;;;;;;;1.95;1.73;;;23.00;53.80;;;;;;5031933;28;20029;-50
2021/09/20 03:05:15;;;;;;;2.30;1.90;;;23.00;53.90;;;;;;5032144;28;20037;-45
2021/09/20 03:07:41;;;;;;;2.25;2.05;;;23.00;53.80;;;;;;5032762;28;20044;-45
2021/09/20 03:10:07;;;;;;;1.98;1.77;;;23.00;53.80;;;;;;5046091;28;20070;-45
2021/09/20 03:12:33;;;;;;;2.58;2.25;;;23.00;53.80;;;;;;5052373;28;20067;-44
2021/09/20 03:14:58;;;;;;;1.98;1.70;;;23.00;53.80;;;;;;5039753;28;20060;-45
2021/09/20 03:17:24;;;;;;;2.03;1.80;;;23.00;53.80;;;;;;5032181;28;20033;-45
2021/09/20 03:19:49;;;;;;;2.88;1.98;;;23.00;53.80;;;;;;5039668;28;20021;-46
2021/09/20 03:22:15;;;;;;;1.98;1.77;;;23.00;53.80;;;;;;5035516;28;20101;-44
2021/09/20 03:24:41;;;;;;;2.25;1.80;;;23.00;53.90;;;;;;5031049;28;20117;-46
2021/09/20 03:27:06;;;;;;;2.28;2.00;;;23.00;53.90;;;;;;5032271;28;20033;-48
2021/09/20 03:29:32;;;;;;;2.45;1.90;;;23.00;53.80;;;;;;5031500;28;20079;-46
2021/09/20 03:31:58;;;;;;;3.42;1.85;;;23.00;53.90;;;;;;5031392;28;20029;-46
2021/09/20 03:34:23;;;;;;;2.50;2.25;;;23.00;53.90;;;;;;5033892;28;20037;-46
2021/09/20 03:36:50;;;;;;;2.40;2.03;;;23.00;53.90;;;;;;5051339;28;20420;-44
2021/09/20 03:39:15;;;;;;;2.33;2.03;;;23.00;53.90;;;;;;5039663;28;20488;-45
2021/09/20 03:41:41;;;;;;;2.00;1.80;;;23.00;53.90;;;;;;5050413;28;20109;-49
2021/09/20 03:44:07;;;;;;;2.90;1.88;;;23.00;53.90;;;;;;5037000;28;20060;-48
2021/09/20 03:46:32;;;;;;;2.97;2.10;;;23.00;54.00;;;;;;5031379;28;20033;-45
2021/09/20 03:48:58;;;;;;;2.17;1.88;;;22.90;53.90;;;;;;5040980;28;20142;-45
2021/09/20 03:51:24;;;;;;;2.50;1.95;;;23.00;53.90;;;;;;5051518;28;20028;-46
2021/09/20 03:53:50;;;;;;;2.30;1.70;;;23.00;53.90;;;;;;5051234;28;20029;-49
2021/09/20 03:56:15;;;;;;;2.45;1.85;;;23.00;54.00;;;;;;5046485;28;20025;-47
2021/09/20 03:58:41;;;;;;;2.05;1.85;;;23.00;54.00;;;;;;5049376;28;20033;-53
2021/09/20 04:01:07;;;;;;;2.40;2.10;;;23.00;54.00;;;;;;5050560;28;20056;-44
2021/09/20 04:03:33;;;;;;;3.15;1.88;;;22.90;54.00;;;;;;5051254;28;20032;-44
2021/09/20 04:05:58;;;;;;;2.33;2.00;;;23.00;54.00;;;;;;5050243;28;20604;-46
2021/09/20 04:08:28;;;;;;;2.30;1.95;;;22.90;54.00;;;;;;5051040;28;20029;-48
2021/09/20 04:10:57;;;;;;;2.60;2.00;;;23.00;54.10;;;;;;5032867;28;20017;-45
2021/09/20 04:13:24;;;;;;;4.75;2.20;;;22.90;54.00;;;;;;5033712;28;20025;-44
2021/09/20 04:15:53;;;;;;;2.20;1.92;;;23.00;54.00;;;;;;5045024;28;20475;-46
2021/09/20 04:18:24;;;;;;;2.65;2.05;;;22.90;54.00;;;;;;5031665;28;20393;-46
2021/09/20 04:20:51;;;;;;;2.03;1.83;;;22.90;54.00;;;;;;5030118;28;20122;-45
2021/09/20 04:23:19;;;;;;;2.60;1.70;;;23.00;54.10;;;;;;5031766;28;20034;-45
2021/09/20 04:25:44;;;;;;;1.98;1.77;;;22.90;54.00;;;;;;5030356;28;20029;-44
2021/09/20 04:28:10;;;;;;;2.67;2.20;;;23.00;54.10;;;;;;5031029;28;20036;-44
2021/09/20 04:30:36;;;;;;;2.35;2.05;;;22.90;54.00;;;;;;5033757;28;20033;-44
2021/09/20 04:33:01;;;;;;;2.47;2.20;;;22.90;54.70;;;;;;5050829;28;20025;-45
2021/09/20 04:35:27;;;;;;;3.95;2.42;;;22.90;54.00;;;;;;5049075;28;20090;-47
2021/09/20 04:37:52;;;;;;;3.08;2.20;;;23.00;54.10;;;;;;5049519;28;20052;-45
2021/09/20 04:40:18;;;;;;;2.42;2.17;;;22.90;54.00;;;;;;5034771;28;20037;-51
2021/09/20 04:42:44;;;;;;;2.50;1.95;;;22.90;54.00;;;;;;5049647;28;20029;-45
2021/09/20 04:45:10;;;;;;;2.38;1.92;;;23.00;54.10;;;;;;5049856;28;20086;-45
2021/09/20 04:47:37;;;;;;;3.40;2.35;;;22.90;54.10;;;;;;5050547;28;20079;-44
2021/09/20 04:50:04;;;;;;;2.67;2.30;;;22.90;54.20;;;;;;5050383;28;20726;-45
2021/09/20 04:52:30;;;;;;;2.40;1.90;;;23.00;54.20;;;;;;5050002;28;20086;-45
2021/09/20 04:54:55;;;;;;;2.30;2.10;;;22.90;54.20;;;;;;5049964;28;20036;-45
2021/09/20 04:57:21;;;;;;;2.15;1.95;;;22.90;54.80;;;;;;5032612;28;20037;-45
2021/09/20 04:59:47;;;;;;;2.15;1.95;;;23.00;54.30;;;;;;5030662;28;20030;-46
2021/09/20 05:02:12;;;;;;;5.20;1.98;;;22.90;54.20;;;;;;5033463;28;20084;-46
2021/09/20 05:04:38;;;;;;;3.42;2.10;;;23.00;54.20;;;;;;5050292;28;20119;-45
2021/09/20 05:07:04;;;;;;;5.53;2.30;;;22.90;54.40;;;;;;5037403;28;20059;-45
2021/09/20 05:09:30;;;;;;;4.30;2.22;;;22.90;54.60;;;;;;5051005;28;20470;-45
2021/09/20 05:11:55;;;;;;;3.88;2.03;;;22.90;54.40;;;;;;5052129;28;20029;-47
2021/09/20 05:14:21;;;;;;;4.75;2.40;;;22.90;54.40;;;;;;5054370;28;20029;-45
2021/09/20 05:16:47;;;;;;;5.03;1.92;;;22.90;54.50;;;;;;5039730;28;20091;-48
2021/09/20 05:19:12;;;;;;;5.53;1.88;;;22.90;54.50;;;;;;5034607;28;20033;-47
2021/09/20 05:21:38;;;;;;;3.03;2.00;;;22.90;54.60;;;;;;5039799;28;20037;-50
2021/09/20 05:24:04;;;;;;;2.03;1.52;;;22.90;54.80;;;;;;5053040;28;20037;-48
2021/09/20 05:26:30;;;;;;;10.77;2.67;;;22.90;54.80;;;;;;5043520;28;20483;-47
2021/09/20 05:28:56;;;;;;;7.57;1.77;;;23.00;55.40;;;;;;5031967;28;20076;-51
2021/09/20 05:31:21;;;;;;;6.05;2.33;;;23.10;55.20;;;;;;5034088;28;20472;-47
2021/09/20 05:33:47;;;;;;;6.53;2.78;;;23.10;55.70;;;;;;5033551;28;20108;-47
2021/09/20 05:36:13;;;;;;;8.00;2.50;;;23.20;55.60;;;;;;5040677;28;20731;-54
2021/09/20 05:38:39;;;;;;;6.63;2.10;;;23.20;55.80;;;;;;5068058;28;20090;-50
2021/09/20 05:41:04;;;;;;;7.50;2.10;;;23.20;56.00;;;;;;5039853;28;20147;-49
2021/09/20 05:43:30;;;;;;;7.20;2.38;;;23.20;55.80;;;;;;5052721;28;20041;-47
2021/09/20 05:45:56;;;;;;;7.13;2.80;;;23.20;56.00;;;;;;5041100;28;20478;-54
2021/09/20 05:48:21;;;;;;;9.43;2.70;;;23.20;56.00;;;;;;5032875;28;20084;-56
2021/09/20 05:50:48;;;;;;;7.38;2.35;;;23.30;56.50;;;;;;5031820;28;20062;-59
2021/09/20 05:53:14;;;;;;;6.47;2.42;;;23.30;56.00;;;;;;5033496;28;20040;-54
2021/09/20 05:55:41;;;;;;;8.02;2.30;;;23.20;56.50;;;;;;5048558;28;20045;-60
2021/09/20 05:58:07;;;;;;;12.32;2.38;;;23.20;56.40;;;;;;5032265;28;20529;-46
2021/09/20 06:00:33;;;;;;;10.98;2.83;;;23.20;57.00;;;;;;5032622;28;20053;-52
2021/09/20 06:02:59;;;;;;;6.35;2.65;;;23.20;56.80;;;;;;5031399;28;20021;-47
2021/09/20 06:05:26;;;;;;;6.75;3.63;;;23.10;57.00;;;;;;5033739;28;20538;-54
2021/09/20 06:07:51;;;;;;;5.30;2.47;;;23.10;56.60;;;;;;5048928;28;20056;-50
2021/09/20 06:10:18;;;;;;;6.10;3.08;;;22.90;55.80;;;;;;5039271;28;20415;-53
2021/09/20 06:12:45;;;;;;;5.15;3.72;;;22.90;55.10;;;;;;5030676;28;20034;-60
2021/09/20 06:15:13;;;;;;;4.85;4.18;;;22.30;53.50;;;;;;5032428;28;20136;-53
2021/09/20 06:17:40;;;;;;;8.00;4.30;;;21.00;56.80;;;;;;5031555;28;20036;-53
2021/09/20 06:20:07;;;;;;;6.03;4.53;;;20.40;58.70;;;;;;5044580;28;20051;-56
2021/09/20 06:22:33;;;;;;;4.47;3.97;;;20.10;59.80;;;;;;5053866;28;20064;-54
2021/09/20 06:24:59;;;;;;;7.60;5.45;;;20.00;60.30;;;;;;5034679;28;20049;-53
2021/09/20 06:27:29;;;;;;;7.07;4.75;;;19.90;60.70;;;;;;5043649;28;20041;-53
2021/09/20 06:29:55;;;;;;;8.80;5.03;;;19.70;60.90;;;;;;5049949;28;20056;-54
2021/09/20 06:32:21;;;;;;;6.45;4.82;;;19.60;61.10;;;;;;5049636;28;20486;-54
2021/09/20 06:34:47;;;;;;;8.00;4.93;;;19.70;61.30;;;;;;5047955;28;20037;-55
2021/09/20 06:37:13;;;;;;;8.43;4.97;;;19.60;61.20;;;;;;5050492;28;20371;-54
2021/09/20 06:39:39;;;;;;;6.75;4.45;;;19.60;61.40;;;;;;5050599;28;20040;-54
2021/09/20 06:42:06;;;;;;;7.25;4.75;;;19.60;61.60;;;;;;5049461;28;20024;-53
2021/09/20 06:44:33;;;;;;;6.75;4.43;;;19.50;61.80;;;;;;5050639;28;20025;-54
2021/09/20 06:46:59;;;;;;;7.63;5.05;;;19.50;62.10;;;;;;5050119;28;20029;-52
2021/09/20 06:49:25;;;;;;;8.43;4.22;;;19.50;62.30;;;;;;5050398;28;20112;-51
2021/09/20 06:51:51;;;;;;;7.47;4.13;;;20.20;60.60;;;;;;5048588;28;20033;-53
2021/09/20 06:54:21;;;;;;;4.65;3.60;;;20.80;58.90;;;;;;5049908;28;20021;-51
2021/09/20 06:56:47;;;;;;;6.63;3.63;;;21.10;58.10;;;;;;5049846;28;20751;-55
2021/09/20 06:59:13;;;;;;;7.85;3.38;;;21.30;57.50;;;;;;5051192;28;20068;-54
2021/09/20 07:01:40;;;;;;;6.53;3.72;;;21.40;57.00;;;;;;5050341;28;20057;-57
2021/09/20 07:04:05;;;;;;;8.55;3.50;;;21.50;56.80;;;;;;5048080;28;20090;-53
2021/09/20 07:06:31;;;;;;;7.45;3.50;;;21.60;56.60;;;;;;5048284;28;20029;-54
2021/09/20 07:08:57;;;;;;;4.93;3.25;;;21.60;56.60;;;;;;5049396;28;20030;-52
2021/09/20 07:11:23;;;;;;;5.63;3.53;;;21.70;56.50;;;;;;5050740;28;20028;-52
2021/09/20 07:13:49;;;;;;;4.72;3.40;;;21.70;56.40;;;;;;5047054;28;20032;-55
2021/09/20 07:16:15;;;;;;;8.90;4.15;;;21.80;56.30;;;;;;5048509;28;20406;-54
2021/09/20 07:18:41;;;;;;;5.95;3.58;;;21.70;56.20;;;;;;5048620;28;20056;-59
2021/09/20 07:21:07;;;;;;;4.50;3.60;;;21.70;56.40;;;;;;5048024;28;20067;-52
2021/09/20 07:23:32;;;;;;;6.05;3.50;;;21.80;56.20;;;;;;5050033;28;20021;-55
2021/09/20 07:25:58;;;;;;;5.38;3.60;;;21.70;56.20;;;;;;5049168;28;20047;-55
2021/09/20 07:28:24;;;;;;;4.22;3.13;;;21.60;56.40;;;;;;5050487;28;20046;-51
2021/09/20 07:30:50;;;;;;;5.68;3.83;;;21.80;56.30;;;;;;5048592;28;20032;-53
2021/09/20 07:33:16;;;;;;;5.53;3.67;;;21.80;56.10;;;;;;5050096;28;20494;-55
2021/09/20 07:35:41;;;;;;;5.65;3.42;;;21.80;56.10;;;;;;5046730;28;20121;-60
2021/09/20 07:38:08;;;;;;;7.57;3.80;;;21.80;55.90;;;;;;5041704;28;20383;-53
2021/09/20 07:40:34;;;;;;;4.78;3.75;;;21.90;55.90;;;;;;5049894;28;20060;-54
2021/09/20 07:43:01;;;;;;;6.30;3.80;;;21.80;55.90;;;;;;5030088;28;20780;-52
2021/09/20 07:45:27;;;;;;;5.15;3.35;;;21.90;55.90;;;;;;5030731;28;20099;-55
2021/09/20 07:47:53;;;;;;;6.45;3.85;;;21.90;55.80;;;;;;5029904;28;20471;-54
2021/09/20 07:50:20;;;;;;;6.50;3.80;;;21.90;55.80;;;;;;5062731;28;20074;-55
2021/09/20 07:52:47;;;;;;;6.60;3.70;;;21.90;55.80;;;;;;5030201;28;20029;-56
2021/09/20 07:55:14;;;;;;;5.45;3.67;;;21.90;56.00;;;;;;5049434;28;20131;-55
2021/09/20 07:57:40;;;;;;;5.75;3.55;;;21.90;56.00;;;;;;5031477;28;20049;-51
2021/09/20 08:00:08;;;;;;;4.45;3.33;;;21.90;56.10;;;;;;5049192;28;20099;-53
2021/09/20 08:02:33;;;;;;;5.05;3.80;;;21.90;56.00;;;;;;5050597;28;20072;-55
2021/09/20 08:04:59;;;;;;;6.03;3.92;;;22.00;55.90;;;;;;5049919;28;20474;-53
2021/09/20 08:07:25;;;;;;;4.93;3.85;;;21.90;55.80;;;;;;5050321;28;20108;-54
2021/09/20 08:09:50;;;;;;;6.03;3.70;;;21.90;55.90;;;;;;5049824;28;20028;-53
2021/09/20 08:12:16;;;;;;;5.40;3.00;;;21.90;56.00;;;;;;5048060;28;20029;-54
2021/09/20 08:14:42;;;;;;;4.95;3.72;;;22.00;55.90;;;;;;5046877;28;20021;-59
2021/09/20 08:17:09;;;;;;;5.53;4.07;;;21.90;56.00;;;;;;5049912;28;20440;-52
2021/09/20 08:19:35;;;;;;;5.22;3.42;;;21.90;55.90;;;;;;5062655;28;20016;-55
2021/09/20 08:22:00;;;;;;;6.53;3.83;;;22.00;55.90;;;;;;5050007;28;20549;-55
2021/09/20 08:24:26;;;;;;;5.32;3.67;;;22.10;55.80;;;;;;5050258;28;20041;-53
2021/09/20 08:26:52;;;;;;;5.43;3.90;;;22.00;55.70;;;;;;5047833;28;20433;-51
2021/09/20 08:29:18;;;;;;;4.70;3.25;;;22.00;55.80;;;;;;5050325;28;20112;-55
2021/09/20 08:31:44;;;;;;;7.20;4.40;;;22.10;55.70;;;;;;5050001;28;20136;-62
2021/09/20 08:34:10;;;;;;;8.60;4.25;;;22.10;55.70;;;;;;5050205;28;20025;-54
2021/09/20 08:36:35;;;;;;;6.80;3.97;;;22.10;55.80;;;;;;5048313;28;20035;-53
2021/09/20 08:39:03;;;;;;;4.78;3.42;;;22.10;56.00;;;;;;5048430;28;20446;-53
2021/09/20 08:41:28;;;;;;;5.28;3.72;;;22.10;55.80;;;;;;5044236;28;20033;-55
2021/09/20 08:43:54;;;;;;;7.18;4.25;;;22.10;55.80;;;;;;5038551;28;20036;-55
2021/09/20 08:46:21;;;;;;;7.00;4.38;;;22.10;56.00;;;;;;5033984;28;20418;-53
2021/09/20 08:48:48;;;;;;;8.85;5.07;;;22.10;55.90;;;;;;5040819;28;20501;-58
2021/09/20 08:51:17;;;;;;;9.73;4.80;;;22.00;56.00;;;;;;5054344;28;20348;-54
2021/09/20 08:53:43;;;;;;;7.35;4.53;;;22.00;56.30;;;;;;5053856;28;20036;-61
2021/09/20 08:56:10;;;;;;;8.23;4.53;;;22.00;56.30;;;;;;5053038;28;20538;-55
2021/09/20 08:58:35;;;;;;;13.68;6.55;;;22.00;56.40;;;;;;5052360;28;20033;-52
2021/09/20 09:01:01;;;;;;;8.07;5.07;;;22.00;56.30;;;;;;5052517;28;20064;-55
2021/09/20 09:03:29;;;;;;;6.90;5.38;;;22.10;56.40;;;;;;5053531;28;20138;-53
2021/09/20 09:05:56;;;;;;;6.45;4.50;;;22.00;56.30;;;;;;5046766;28;20041;-54
2021/09/20 09:08:35;;;;;;;10.27;4.82;;;22.00;56.30;;;;;;5033956;28;20025;-54
2021/09/20 09:11:08;;;;;;;7.28;4.30;;;22.10;56.40;;;;;;5048288;28;20064;-53
2021/09/20 09:13:42;;;;;;;8.52;4.75;;;22.10;56.40;;;;;;5052928;28;20037;-54
2021/09/20 09:16:17;;;;;;;7.05;5.35;;;22.00;56.40;;;;;;5049048;28;20490;-53
2021/09/20 09:19:04;;;;;;;7.10;5.20;;;22.00;56.60;;;;;;5046956;28;20049;-59
2021/09/20 09:21:32;;;;;;;9.52;5.32;;;22.00;56.70;;;;;;5053198;28;20033;-58
2021/09/20 09:23:59;;;;;;;6.82;5.25;;;22.00;56.40;;;;;;5052570;28;20072;-55
2021/09/20 09:26:25;;;;;;;7.20;5.22;;;22.10;56.40;;;;;;5051375;28;20033;-55
2021/09/20 09:28:53;;;;;;;6.70;5.05;;;22.10;56.40;;;;;;5052096;28;20382;-55
2021/09/20 09:31:18;;;;;;;7.03;4.95;;;22.10;56.40;;;;;;5042331;28;20132;-55
2021/09/20 09:33:45;;;;;;;8.18;5.38;;;22.10;56.40;;;;;;5032634;28;20131;-61
2021/09/20 09:36:14;;;;;;;7.53;5.25;;;22.10;56.50;;;;;;5032769;28;20037;-56
2021/09/20 09:38:57;;;;;;;7.55;5.28;;;22.10;56.50;;;;;;5033111;28;20029;-55
2021/09/20 09:41:39;;;;;;;8.48;5.25;;;22.10;56.50;;;;;;5041865;28;20563;-55
2021/09/20 09:44:08;;;;;;;8.63;5.88;;;22.00;56.70;;;;;;5049405;28;20021;-57
2021/09/20 09:46:51;;;;;;;8.60;5.55;;;22.00;56.90;;;;;;5032716;28;20056;-53
2021/09/20 09:49:19;;;;;;;7.05;5.07;;;22.00;56.70;;;;;;5052511;28;20142;-53
2021/09/20 09:52:01;;;;;;;5.57;4.57;;;22.00;56.60;;;;;;5058781;28;20041;-61
2021/09/20 09:54:40;;;;;;;7.65;5.03;;;22.00;56.70;;;;;;5052586;28;20435;-54
2021/09/20 09:57:21;;;;;;;10.40;5.97;;;22.00;56.70;;;;;;5036764;28;20057;-55
2021/09/20 09:59:54;;;;;;;7.30;5.50;;;22.00;56.70;;;;;;5031978;28;20033;-52
2021/09/20 10:02:30;;;;;;;6.35;5.05;;;22.00;56.80;;;;;;5032720;28;20037;-53
2021/09/20 10:05:11;;;;;;;9.68;5.65;;;22.00;56.90;;;;;;5031961;28;20112;-53
2021/09/20 10:07:45;;;;;;;8.15;5.55;;;21.90;56.90;;;;;;5032593;28;20037;-55
2021/09/20 10:10:20;;;;;;;7.00;5.72;;;22.00;57.00;;;;;;5034718;28;20101;-55
2021/09/20 10:12:48;;;;;;;6.93;4.80;;;21.90;57.10;;;;;;5037275;28;20033;-61
2021/09/20 10:15:16;;;;;;;6.85;4.90;;;21.90;57.00;;;;;;5032325;28;20034;-58
2021/09/20 10:17:42;;;;;;;5.93;4.70;;;21.90;57.00;;;;;;5032415;28;20022;-63
2021/09/20 10:20:13;;;;;;;6.65;5.00;;;22.00;57.00;;;;;;5051620;28;20029;-62
2021/09/20 10:22:39;;;;;;;6.20;4.95;;;22.00;56.80;;;;;;5052222;28;20037;-63
2021/09/20 10:25:08;;;;;;;7.70;5.45;;;22.10;56.80;;;;;;5051149;28;20041;-63
2021/09/20 10:27:34;;;;;;;6.85;5.47;;;22.10;56.80;;;;;;5051241;28;20029;-63
2021/09/20 10:30:11;;;;;;;9.20;5.80;;;22.00;56.90;;;;;;5050808;28;20045;-62
2021/09/20 10:32:42;;;;;;;9.52;6.40;;;21.90;57.00;;;;;;5051995;28;20123;-63
2021/09/20 10:35:28;;;;;;;8.95;5.93;;;21.80;57.20;;;;;;5051630;28;20033;-62
2021/09/20 10:38:05;;;;;;;7.10;5.88;;;21.90;57.20;;;;;;5051470;28;20033;-62
2021/09/20 10:40:32;;;;;;;6.80;5.78;;;21.90;57.10;;;;;;5043305;28;20112;-63
2021/09/20 10:43:03;;;;;;;7.53;6.18;;;21.90;57.20;;;;;;5045322;28;20032;-62
2021/09/20 10:45:52;;;;;;;7.97;5.97;;;21.90;57.10;;;;;;5032254;28;20390;-63
2021/09/20 10:48:47;;;;;;;7.15;6.20;;;21.90;57.10;;;;;;5035231;28;20021;-62
2021/09/20 10:51:13;;;;;;;7.15;5.80;;;22.00;56.90;;;;;;5054876;28;20052;-63
2021/09/20 10:53:39;;;;;;;8.90;5.93;;;21.90;57.00;;;;;;5031690;28;20075;-62
2021/09/20 10:56:06;;;;;;;6.10;5.25;;;22.00;56.90;;;;;;5036532;28;20029;-63
2021/09/20 10:58:38;;;;;;;6.85;5.78;;;22.00;56.80;;;;;;5042028;28;20071;-63
2021/09/20 11:01:12;;;;;;;6.90;5.70;;;22.00;56.80;;;;;;5030627;28;20056;-63
2021/09/20 11:03:49;;;;;;;8.13;5.47;;;22.00;56.80;;;;;;5031399;28;20260;-63
2021/09/20 11:06:26;;;;;;;7.82;5.88;;;22.00;56.80;;;;;;5038969;28;20037;-63
2021/09/20 11:08:57;;;;;;;5.78;5.13;;;22.00;56.90;;;;;;5033218;28;20122;-62
2021/09/20 11:12:01;;;;;;;8.18;5.88;;;22.10;57.00;;;;;;5041341;28;20068;-62
2021/09/20 11:14:49;;;;;;;8.68;5.38;;;22.00;56.80;;;;;;5028319;28;20506;-63
2021/09/20 11:17:28;;;;;;;8.05;5.78;;;22.00;56.80;;;;;;5031536;28;20061;-63
2021/09/20 11:20:25;;;;;;;6.80;5.47;;;22.00;56.80;;;;;;5030750;28;20060;-62
2021/09/20 11:23:17;;;;;;;8.40;6.65;;;22.00;56.80;;;;;;5030507;28;20032;-62
2021/09/20 11:26:13;;;;;;;7.03;6.15;;;21.90;56.90;;;;;;5032271;28;20037;-62
2021/09/20 11:28:50;;;;;;;7.10;5.60;;;21.90;56.90;;;;;;5044040;28;20560;-63
2021/09/20 11:31:16;;;;;;;8.27;5.85;;;21.90;56.80;;;;;;5051226;28;20033;-64
2021/09/20 11:33:47;;;;;;;8.30;5.55;;;21.90;56.90;;;;;;5050968;28;20048;-63
2021/09/20 11:36:26;;;;;;;7.50;5.85;;;21.90;57.50;;;;;;5050073;28;20441;-62
2021/09/20 11:39:08;;;;;;;10.10;5.72;;;21.90;56.80;;;;;;5049544;28;20037;-62
2021/09/20 11:41:34;;;;;;;9.10;6.15;;;21.90;56.80;;;;;;5051030;28;20025;-63
2021/09/20 11:44:00;;;;;;;8.63;5.82;;;22.00;56.90;;;;;;5036283;28;20092;-62
2021/09/20 11:46:27;;;;;;;9.30;5.63;;;22.00;56.90;;;;;;5032028;28;20056;-63
2021/09/20 11:49:12;;;;;;;8.90;5.95;;;22.00;56.90;;;;;;5043445;28;20024;-62
2021/09/20 11:51:38;;;;;;;8.32;5.47;;;22.00;56.80;;;;;;5071051;28;20074;-63
2021/09/20 11:54:05;;;;;;;7.57;6.22;;;22.00;56.70;;;;;;5067356;28;20060;-62
2021/09/20 11:56:31;;;;;;;7.32;5.68;;;22.00;56.70;;;;;;5050088;28;20112;-63
2021/09/20 11:58:59;;;;;;;7.35;5.65;;;22.00;56.70;;;;;;5050046;28;20108;-63
2021/09/20 12:01:26;;;;;;;8.82;5.68;;;22.00;57.40;;;;;;5049859;28;20057;-62
2021/09/20 12:03:54;;;;;;;7.72;5.90;;;22.00;56.70;;;;;;5037371;28;20039;-62
2021/09/20 12:06:31;;;;;;;7.82;5.85;;;22.00;56.80;;;;;;5030645;28;20042;-63
2021/09/20 12:09:00;;;;;;;8.95;6.47;;;22.00;56.80;;;;;;5030227;28;20025;-62
2021/09/20 12:11:26;;;;;;;7.55;5.43;;;22.00;56.70;;;;;;5032558;28;20029;-62
2021/09/20 12:13:52;;;;;;;8.18;6.10;;;22.00;56.70;;;;;;5041536;28;20100;-62
2021/09/20 12:16:18;;;;;;;6.82;6.00;;;22.00;56.70;;;;;;5050366;28;20036;-62
2021/09/20 12:18:44;;;;;;;5.82;4.90;;;21.90;56.70;;;;;;5059711;28;20055;-62
2021/09/20 12:21:14;;;;;;;6.90;5.55;;;22.00;56.70;;;;;;5065791;28;20108;-62
2021/09/20 12:23:49;;;;;;;8.02;6.10;;;22.00;56.60;;;;;;5054564;28;20103;-62
2021/09/20 12:26:25;;;;;;;7.30;5.80;;;21.80;56.70;;;;;;5052500;28;20047;-62
2021/09/20 12:28:58;;;;;;;6.45;5.50;;;21.90;56.70;;;;;;5051739;28;20020;-62
2021/09/20 12:31:51;;;;;;;7.60;5.35;;;22.00;56.60;;;;;;5060226;28;20037;-63
2021/09/20 12:34:19;;;;;;;9.57;5.07;;;22.00;56.40;;;;;;5031473;28;20164;-63
2021/09/20 12:36:46;;;;;;;7.40;5.30;;;22.00;56.60;;;;;;5031685;28;20132;-62
2021/09/20 12:39:26;;;;;;;11.13;5.28;;;22.00;56.90;;;;;;5032084;28;20045;-63
2021/09/20 12:42:01;;;;;;;7.30;5.10;;;22.00;56.80;;;;;;5030131;28;20029;-62
2021/09/20 12:44:33;;;;;;;8.48;5.25;;;22.00;56.70;;;;;;5015060;28;20050;-65
2021/09/20 12:47:06;;;;;;;;;;;22.10;56.60;;;;;;5012736;28;20128;-62
2021/09/20 12:49:33;;;;;;;7.93;5.40;;;22.00;56.70;;;;;;5028556;28;20039;-62
2021/09/20 12:52:00;;;;;;;9.05;5.50;;;22.00;56.50;;;;;;5030591;28;20057;-62